createdAt,value
2017-10-11T00:00:54.433Z,0
2017-10-11T00:02:03.463Z,0
2017-10-11T00:03:13.160Z,0
2017-10-11T00:04:21.850Z,0
2017-10-11T00:05:30.894Z,0
2017-10-11T00:06:40.249Z,0
2017-10-11T00:07:49.608Z,0
2017-10-11T00:08:58.640Z,0
2017-10-11T00:10:07.997Z,0
2017-10-11T00:11:16.711Z,0
2017-10-11T00:12:25.735Z,0
2017-10-11T00:13:35.423Z,0
2017-10-11T00:14:44.784Z,0
2017-10-11T00:15:53.816Z,0
2017-10-11T00:17:03.182Z,0
2017-10-11T00:18:12.544Z,0
2017-10-11T00:19:21.573Z,0
2017-10-11T00:20:30.931Z,0
2017-10-11T00:21:40.290Z,0
2017-10-11T00:22:48.986Z,0
2017-10-11T00:23:57.683Z,0
2017-10-11T00:25:06.710Z,0
2017-10-11T00:26:15.736Z,0
2017-10-11T00:27:24.762Z,0
2017-10-11T00:28:33.790Z,0
2017-10-11T00:29:43.149Z,0
2017-10-11T00:30:52.171Z,0
2017-10-11T00:32:01.192Z,0
2017-10-11T00:33:10.548Z,0
2017-10-11T00:34:19.242Z,0
2017-10-11T00:35:28.268Z,0
2017-10-11T00:36:37.621Z,0
2017-10-11T00:37:46.648Z,0
2017-10-11T00:38:56.672Z,0
2017-10-11T00:40:05.697Z,0
2017-10-11T00:41:15.063Z,0
2017-10-11T00:42:24.093Z,0
2017-10-11T00:43:33.116Z,0
2017-10-11T00:44:42.814Z,0
2017-10-11T00:45:51.840Z,0
2017-10-11T00:47:00.873Z,0
2017-10-11T00:48:10.572Z,0
2017-10-11T00:49:19.960Z,0
2017-10-11T00:50:28.653Z,0
2017-10-11T00:51:37.677Z,0
2017-10-11T00:52:47.031Z,0
2017-10-11T00:53:55.727Z,0
2017-10-11T00:55:05.087Z,0
2017-10-11T00:56:14.775Z,0
2017-10-11T00:57:23.469Z,0
2017-10-11T00:58:32.498Z,0
2017-10-11T00:59:41.529Z,0
2017-10-11T01:00:50.556Z,0
2017-10-11T01:01:59.927Z,0
2017-10-11T01:03:09.627Z,0
2017-10-11T01:04:18.321Z,0
2017-10-11T01:05:27.350Z,0
2017-10-11T01:06:36.710Z,0
2017-10-11T01:07:45.737Z,0
2017-10-11T01:08:54.766Z,0
2017-10-11T01:10:04.127Z,0
2017-10-11T01:11:13.157Z,0
2017-10-11T01:12:22.183Z,0
2017-10-11T01:13:31.885Z,0
2017-10-11T01:14:40.583Z,0
2017-10-11T01:15:49.956Z,0
2017-10-11T01:16:58.987Z,0
2017-10-11T01:18:07.688Z,0
2017-10-11T01:19:16.379Z,0
2017-10-11T01:20:25.737Z,0
2017-10-11T01:21:35.430Z,0
2017-10-11T01:22:44.789Z,0
2017-10-11T01:23:53.824Z,0
2017-10-11T01:25:03.186Z,0
2017-10-11T01:26:12.212Z,0
2017-10-11T01:27:21.236Z,0
2017-10-11T01:28:30.263Z,0
2017-10-11T01:29:38.954Z,0
2017-10-11T01:30:47.647Z,0
2017-10-11T01:31:57.002Z,0
2017-10-11T01:33:06.025Z,0
2017-10-11T01:34:15.385Z,0
2017-10-11T01:35:24.079Z,0
2017-10-11T01:36:32.776Z,0
2017-10-11T01:37:42.135Z,0
2017-10-11T01:38:51.164Z,0
2017-10-11T01:40:00.189Z,0
2017-10-11T01:41:09.219Z,0
2017-10-11T01:42:17.917Z,0
2017-10-11T01:43:27.618Z,0
2017-10-11T01:44:37.650Z,0
2017-10-11T01:45:47.009Z,0
2017-10-11T01:46:56.032Z,0
2017-10-11T01:48:05.063Z,0
2017-10-11T01:49:14.089Z,0
2017-10-11T01:50:23.781Z,0
2017-10-11T01:51:32.805Z,0
2017-10-11T01:52:41.834Z,0
2017-10-11T01:53:50.864Z,0
2017-10-11T01:54:59.884Z,0
2017-10-11T01:56:08.575Z,0
2017-10-11T01:57:17.270Z,0
2017-10-11T01:58:26.634Z,0
2017-10-11T01:59:35.657Z,0
2017-10-11T02:00:44.682Z,0
2017-10-11T02:01:53.710Z,0
2017-10-11T02:03:02.400Z,0
2017-10-11T02:04:11.092Z,0
2017-10-11T02:05:20.451Z,0
2017-10-11T02:06:29.808Z,0
2017-10-11T02:07:38.499Z,0
2017-10-11T02:08:47.198Z,0
2017-10-11T02:09:56.881Z,0
2017-10-11T02:11:05.906Z,0
2017-10-11T02:12:14.603Z,0
2017-10-11T02:13:23.627Z,0
2017-10-11T02:14:32.985Z,0
2017-10-11T02:15:42.009Z,0
2017-10-11T02:16:50.698Z,0
2017-10-11T02:18:00.049Z,0
2017-10-11T02:19:09.411Z,0
2017-10-11T02:20:18.102Z,0
2017-10-11T02:21:27.800Z,0
2017-10-11T02:22:36.819Z,0
2017-10-11T02:23:45.844Z,0
2017-10-11T02:24:54.876Z,0
2017-10-11T02:26:04.231Z,0
2017-10-11T02:27:13.255Z,0
2017-10-11T02:28:22.612Z,0
2017-10-11T02:29:32.300Z,0
2017-10-11T02:30:41.323Z,0
2017-10-11T02:31:50.687Z,0
2017-10-11T02:33:00.371Z,0
2017-10-11T02:34:09.400Z,0
2017-10-11T02:35:18.766Z,0
2017-10-11T02:36:28.127Z,0
2017-10-11T02:37:37.166Z,0
2017-10-11T02:38:46.195Z,0
2017-10-11T02:39:55.888Z,0
2017-10-11T02:41:05.597Z,0
2017-10-11T02:42:14.618Z,0
2017-10-11T02:43:23.644Z,0
2017-10-11T02:44:32.676Z,0
2017-10-11T02:45:41.700Z,0
2017-10-11T02:46:50.728Z,0
2017-10-11T02:48:00.087Z,0
2017-10-11T02:49:09.113Z,0
2017-10-11T02:50:18.144Z,0
2017-10-11T02:51:27.888Z,0
2017-10-11T02:52:37.244Z,0
2017-10-11T02:53:45.935Z,0
2017-10-11T02:54:55.978Z,0
2017-10-11T02:56:05.350Z,0
2017-10-11T02:57:14.378Z,0
2017-10-11T02:58:23.077Z,0
2017-10-11T02:59:32.112Z,0
2017-10-11T03:00:41.476Z,0
2017-10-11T03:01:51.174Z,0
2017-10-11T03:03:00.870Z,0
2017-10-11T03:04:10.550Z,0
2017-10-11T03:05:19.243Z,0
2017-10-11T03:06:28.268Z,0
2017-10-11T03:07:36.972Z,0
2017-10-11T03:08:46.318Z,0
2017-10-11T03:09:55.014Z,0
2017-10-11T03:11:03.710Z,0
2017-10-11T03:12:12.403Z,0
2017-10-11T03:13:21.431Z,0
2017-10-11T03:14:31.125Z,0
2017-10-11T03:15:40.157Z,0
2017-10-11T03:16:49.187Z,0
2017-10-11T03:17:58.881Z,0
2017-10-11T03:19:07.577Z,0
2017-10-11T03:20:16.927Z,0
2017-10-11T03:21:26.298Z,0
2017-10-11T03:22:35.654Z,0
2017-10-11T03:23:45.010Z,0
2017-10-11T03:24:53.703Z,0
2017-10-11T03:26:03.064Z,0
2017-10-11T03:27:11.760Z,0
2017-10-11T03:28:20.788Z,0
2017-10-11T03:29:30.154Z,0
2017-10-11T03:30:39.179Z,0
2017-10-11T03:31:48.864Z,0
2017-10-11T03:32:58.224Z,0
2017-10-11T03:34:07.244Z,0
2017-10-11T03:35:16.273Z,0
2017-10-11T03:36:24.966Z,0
2017-10-11T03:37:33.990Z,0
2017-10-11T03:38:42.679Z,0
2017-10-11T03:39:52.041Z,0
2017-10-11T03:41:01.731Z,0
2017-10-11T03:42:10.764Z,0
2017-10-11T03:43:19.789Z,0
2017-10-11T03:44:28.810Z,0
2017-10-11T03:45:37.835Z,0
2017-10-11T03:46:47.201Z,0
2017-10-11T03:47:56.224Z,0
2017-10-11T03:49:04.916Z,0
2017-10-11T03:50:14.287Z,0
2017-10-11T03:51:22.979Z,0
2017-10-11T03:52:32.004Z,0
2017-10-11T03:53:40.697Z,0
2017-10-11T03:54:49.729Z,0
2017-10-11T03:55:59.081Z,0
2017-10-11T03:57:08.106Z,0
2017-10-11T03:58:16.803Z,0
2017-10-11T03:59:25.827Z,0
2017-10-11T04:00:34.517Z,0
2017-10-11T04:01:43.540Z,0
2017-10-11T04:02:52.569Z,0
2017-10-11T04:04:01.264Z,0
2017-10-11T04:05:10.293Z,0
2017-10-11T04:06:19.664Z,0
2017-10-11T04:07:29.022Z,0
2017-10-11T04:08:38.046Z,0
2017-10-11T04:09:46.746Z,0
2017-10-11T04:10:56.463Z,0
2017-10-11T04:12:05.498Z,0
2017-10-11T04:13:14.201Z,0
2017-10-11T04:14:23.217Z,0
2017-10-11T04:15:32.242Z,0
2017-10-11T04:16:41.263Z,0
2017-10-11T04:17:50.621Z,0
2017-10-11T04:18:59.649Z,0
2017-10-11T04:20:08.676Z,0
2017-10-11T04:21:17.370Z,0
2017-10-11T04:22:26.730Z,0
2017-10-11T04:23:35.426Z,0
2017-10-11T04:24:44.455Z,0
2017-10-11T04:25:53.153Z,0
2017-10-11T04:27:02.171Z,0
2017-10-11T04:28:10.865Z,0
2017-10-11T04:29:20.235Z,0
2017-10-11T04:30:29.595Z,0
2017-10-11T04:31:38.624Z,0
2017-10-11T04:32:47.649Z,0
2017-10-11T04:33:56.340Z,0
2017-10-11T04:35:05.372Z,0
2017-10-11T04:36:14.405Z,0
2017-10-11T04:37:23.099Z,0
2017-10-11T04:38:31.790Z,0
2017-10-11T04:39:40.486Z,0
2017-10-11T04:40:49.184Z,0
2017-10-11T04:41:58.871Z,0
2017-10-11T04:43:07.895Z,0
2017-10-11T04:44:17.256Z,0
2017-10-11T04:45:26.286Z,0
2017-10-11T04:46:34.979Z,0
2017-10-11T04:47:44.003Z,0
2017-10-11T04:48:52.699Z,0
2017-10-11T04:50:02.067Z,0
2017-10-11T04:51:11.212Z,0
2017-10-11T04:52:20.571Z,0
2017-10-11T04:53:30.258Z,0
2017-10-11T04:54:39.282Z,0
2017-10-11T04:55:47.972Z,0
2017-10-11T04:56:57.343Z,0
2017-10-11T04:58:07.038Z,0
2017-10-11T04:59:16.069Z,0
2017-10-11T05:00:25.433Z,0
2017-10-11T05:01:34.796Z,0
2017-10-11T05:02:44.157Z,0
2017-10-11T05:03:53.514Z,0
2017-10-11T05:05:02.542Z,0
2017-10-11T05:06:11.901Z,0
2017-10-11T05:07:21.255Z,0
2017-10-11T05:08:30.283Z,0
2017-10-11T05:09:39.311Z,0
2017-10-11T05:10:48.337Z,0
2017-10-11T05:11:57.689Z,0
2017-10-11T05:13:06.709Z,0
2017-10-11T05:14:15.740Z,0
2017-10-11T05:15:24.773Z,0
2017-10-11T05:16:33.809Z,0
2017-10-11T05:17:42.827Z,0
2017-10-11T05:18:51.858Z,0
2017-10-11T05:20:00.887Z,0
2017-10-11T05:21:09.904Z,0
2017-10-11T05:22:18.597Z,0
2017-10-11T05:23:27.289Z,0
2017-10-11T05:24:36.977Z,0
2017-10-11T05:25:46.338Z,0
2017-10-11T05:26:55.359Z,0
2017-10-11T05:28:04.052Z,0
2017-10-11T05:29:13.075Z,0
2017-10-11T05:30:22.098Z,0
2017-10-11T05:31:31.449Z,0
2017-10-11T05:32:40.476Z,0
2017-10-11T05:33:49.502Z,0
2017-10-11T05:34:58.861Z,0
2017-10-11T05:36:07.884Z,0
2017-10-11T05:37:16.574Z,4
2017-10-11T05:38:25.273Z,0
2017-10-11T05:39:33.971Z,4
2017-10-11T05:40:43.345Z,0
2017-10-11T05:41:52.359Z,0
2017-10-11T05:43:01.716Z,4
2017-10-11T05:44:10.743Z,4
2017-10-11T05:45:20.106Z,4
2017-10-11T05:46:29.128Z,4
2017-10-11T05:47:38.487Z,4
2017-10-11T05:48:47.513Z,0
2017-10-11T05:49:56.878Z,4
2017-10-11T05:51:06.230Z,4
2017-10-11T05:52:15.253Z,0
2017-10-11T05:53:24.274Z,4
2017-10-11T05:54:32.967Z,4
2017-10-11T05:55:41.992Z,4
2017-10-11T05:56:50.685Z,4
2017-10-11T05:57:59.384Z,4
2017-10-11T05:59:08.753Z,0
2017-10-11T06:00:17.775Z,4
2017-10-11T06:01:26.796Z,4
2017-10-11T06:02:35.826Z,4
2017-10-11T06:03:45.192Z,8
2017-10-11T06:04:54.883Z,8
2017-10-11T06:06:03.909Z,8
2017-10-11T06:07:12.602Z,4
2017-10-11T06:08:21.624Z,8
2017-10-11T06:09:30.646Z,8
2017-10-11T06:10:39.336Z,8
2017-10-11T06:11:48.365Z,8
2017-10-11T06:12:57.396Z,12
2017-10-11T06:14:06.089Z,12
2017-10-11T06:15:14.783Z,12
2017-10-11T06:16:23.815Z,12
2017-10-11T06:17:33.524Z,12
2017-10-11T06:18:42.940Z,16
2017-10-11T06:19:51.967Z,16
2017-10-11T06:21:01.337Z,16
2017-10-11T06:22:10.692Z,16
2017-10-11T06:23:20.046Z,20
2017-10-11T06:24:28.745Z,20
2017-10-11T06:25:38.104Z,20
2017-10-11T06:26:47.128Z,24
2017-10-11T06:27:56.823Z,28
2017-10-11T06:29:05.852Z,32
2017-10-11T06:30:14.543Z,28
2017-10-11T06:31:23.242Z,32
2017-10-11T06:32:31.933Z,32
2017-10-11T06:33:40.959Z,36
2017-10-11T06:34:50.320Z,36
2017-10-11T06:35:59.675Z,32
2017-10-11T06:37:08.374Z,36
2017-10-11T06:38:18.058Z,40
2017-10-11T06:39:27.096Z,44
2017-10-11T06:40:37.116Z,48
2017-10-11T06:41:46.818Z,44
2017-10-11T06:42:56.180Z,40
2017-10-11T06:44:05.219Z,36
2017-10-11T06:45:14.247Z,36
2017-10-11T06:46:22.939Z,32
2017-10-11T06:47:31.980Z,40
2017-10-11T06:48:41.014Z,40
2017-10-11T06:49:49.716Z,44
2017-10-11T06:50:58.743Z,40
2017-10-11T06:52:07.438Z,44
2017-10-11T06:53:16.466Z,44
2017-10-11T06:54:25.156Z,48
2017-10-11T06:55:34.838Z,48
2017-10-11T06:56:43.864Z,44
2017-10-11T06:57:52.554Z,36
2017-10-11T06:59:01.249Z,36
2017-10-11T07:00:09.944Z,36
2017-10-11T07:01:19.300Z,36
2017-10-11T07:02:27.990Z,36
2017-10-11T07:03:37.683Z,32
2017-10-11T07:04:46.716Z,32
2017-10-11T07:05:55.408Z,40
2017-10-11T07:07:04.431Z,36
2017-10-11T07:08:13.121Z,36
2017-10-11T07:09:22.146Z,36
2017-10-11T07:10:30.849Z,36
2017-10-11T07:11:39.538Z,60
2017-10-11T07:12:48.898Z,76
2017-10-11T07:13:58.591Z,56
2017-10-11T07:15:07.615Z,52
2017-10-11T07:16:16.315Z,76
2017-10-11T07:17:25.344Z,60
2017-10-11T07:18:34.369Z,52
2017-10-11T07:19:43.400Z,60
2017-10-11T07:20:52.764Z,52
2017-10-11T07:22:02.128Z,40
2017-10-11T07:23:11.151Z,28
2017-10-11T07:24:20.507Z,28
2017-10-11T07:25:29.201Z,20
2017-10-11T07:26:38.561Z,16
2017-10-11T07:27:47.591Z,20
2017-10-11T07:28:56.286Z,16
2017-10-11T07:30:05.985Z,16
2017-10-11T07:31:15.676Z,16
2017-10-11T07:32:24.703Z,12
2017-10-11T07:33:33.733Z,12
2017-10-11T07:34:43.095Z,8
2017-10-11T07:35:52.123Z,12
2017-10-11T07:37:01.483Z,8
2017-10-11T07:38:11.167Z,12
2017-10-11T07:39:20.193Z,12
2017-10-11T07:40:29.357Z,16
2017-10-11T07:41:38.379Z,20
2017-10-11T07:42:47.405Z,24
2017-10-11T07:43:56.766Z,24
2017-10-11T07:45:06.126Z,24
2017-10-11T07:46:15.836Z,24
2017-10-11T07:47:24.866Z,28
2017-10-11T07:48:33.562Z,28
2017-10-11T07:49:42.252Z,28
2017-10-11T07:50:51.288Z,28
2017-10-11T07:52:00.316Z,36
2017-10-11T07:53:10.060Z,40
2017-10-11T07:54:19.430Z,36
2017-10-11T07:55:28.147Z,44
2017-10-11T07:56:37.227Z,36
2017-10-11T07:57:46.252Z,52
2017-10-11T07:58:55.279Z,80
2017-10-11T08:00:03.978Z,64
2017-10-11T08:01:13.336Z,56
2017-10-11T08:02:22.792Z,52
2017-10-11T08:03:31.488Z,40
2017-10-11T08:04:40.257Z,44
2017-10-11T08:05:49.286Z,40
2017-10-11T08:06:58.304Z,36
2017-10-11T08:08:07.662Z,48
2017-10-11T08:09:17.020Z,52
2017-10-11T08:10:25.719Z,52
2017-10-11T08:11:34.746Z,52
2017-10-11T08:12:43.444Z,60
2017-10-11T08:13:52.807Z,48
2017-10-11T08:15:02.505Z,40
2017-10-11T08:16:11.532Z,36
2017-10-11T08:17:20.225Z,32
2017-10-11T08:18:29.588Z,32
2017-10-11T08:19:38.282Z,32
2017-10-11T08:20:47.972Z,28
2017-10-11T08:21:56.665Z,28
2017-10-11T08:23:05.699Z,24
2017-10-11T08:24:14.725Z,20
2017-10-11T08:25:24.080Z,24
2017-10-11T08:26:32.775Z,24
2017-10-11T08:27:42.137Z,24
2017-10-11T08:28:51.497Z,24
2017-10-11T08:30:01.190Z,28
2017-10-11T08:31:09.886Z,32
2017-10-11T08:32:18.582Z,40
2017-10-11T08:33:28.273Z,44
2017-10-11T08:34:36.968Z,52
2017-10-11T08:35:46.330Z,48
2017-10-11T08:36:55.346Z,56
2017-10-11T08:38:04.048Z,60
2017-10-11T08:39:13.751Z,56
2017-10-11T08:40:22.440Z,56
2017-10-11T08:41:31.461Z,60
2017-10-11T08:42:40.155Z,60
2017-10-11T08:43:49.519Z,56
2017-10-11T08:44:58.876Z,56
2017-10-11T08:46:07.908Z,56
2017-10-11T08:47:16.933Z,60
2017-10-11T08:48:25.956Z,64
2017-10-11T08:49:34.987Z,64
2017-10-11T08:50:44.013Z,64
2017-10-11T08:51:52.708Z,56
2017-10-11T08:53:01.736Z,48
2017-10-11T08:54:10.431Z,48
2017-10-11T08:55:19.124Z,48
2017-10-11T08:56:28.824Z,48
2017-10-11T08:57:38.193Z,44
2017-10-11T08:58:46.890Z,40
2017-10-11T08:59:55.914Z,48
2017-10-11T09:01:05.269Z,60
2017-10-11T09:02:13.962Z,64
2017-10-11T09:03:22.995Z,68
2017-10-11T09:04:32.355Z,68
2017-10-11T09:05:41.053Z,60
2017-10-11T09:06:50.421Z,68
2017-10-11T09:07:59.448Z,64
2017-10-11T09:09:09.170Z,64
2017-10-11T09:10:18.525Z,68
2017-10-11T09:11:27.273Z,60
2017-10-11T09:12:36.632Z,64
2017-10-11T09:13:45.327Z,64
2017-10-11T09:14:54.350Z,52
2017-10-11T09:16:04.379Z,48
2017-10-11T09:17:13.743Z,40
2017-10-11T09:18:23.102Z,44
2017-10-11T09:19:32.802Z,48
2017-10-11T09:20:41.833Z,52
2017-10-11T09:21:50.859Z,60
2017-10-11T09:23:01.208Z,72
2017-10-11T09:24:10.233Z,76
2017-10-11T09:25:19.926Z,72
2017-10-11T09:26:28.624Z,72
2017-10-11T09:27:37.995Z,64
2017-10-11T09:28:46.685Z,60
2017-10-11T09:29:55.722Z,60
2017-10-11T09:31:05.080Z,64
2017-10-11T09:32:14.113Z,72
2017-10-11T09:33:23.799Z,72
2017-10-11T09:34:33.166Z,64
2017-10-11T09:35:41.862Z,64
2017-10-11T09:36:50.893Z,52
2017-10-11T09:38:00.915Z,56
2017-10-11T09:39:09.939Z,60
2017-10-11T09:40:19.302Z,64
2017-10-11T09:41:27.998Z,60
2017-10-11T09:42:37.365Z,64
2017-10-11T09:43:46.056Z,72
2017-10-11T09:44:55.075Z,80
2017-10-11T09:46:04.437Z,88
2017-10-11T09:47:14.130Z,88
2017-10-11T09:48:23.158Z,92
2017-10-11T09:49:32.211Z,92
2017-10-11T09:50:41.240Z,88
2017-10-11T09:51:49.937Z,92
2017-10-11T09:52:58.962Z,96
2017-10-11T09:54:07.985Z,84
2017-10-11T09:55:17.678Z,80
2017-10-11T09:56:26.705Z,64
2017-10-11T09:57:36.062Z,64
2017-10-11T09:58:45.421Z,68
2017-10-11T09:59:54.783Z,68
2017-10-11T10:01:03.814Z,60
2017-10-11T10:02:13.163Z,68
2017-10-11T10:03:22.192Z,72
2017-10-11T10:04:31.876Z,72
2017-10-11T10:05:40.897Z,76
2017-10-11T10:06:49.917Z,72
2017-10-11T10:07:58.945Z,68
2017-10-11T10:09:07.979Z,68
2017-10-11T10:10:17.321Z,60
2017-10-11T10:11:26.677Z,68
2017-10-11T10:12:36.032Z,76
2017-10-11T10:13:45.722Z,76
2017-10-11T10:14:54.420Z,68
2017-10-11T10:16:03.132Z,68
2017-10-11T10:17:12.482Z,68
2017-10-11T10:18:21.510Z,72
2017-10-11T10:19:30.538Z,80
2017-10-11T10:20:39.562Z,76
2017-10-11T10:21:48.607Z,76
2017-10-11T10:22:57.630Z,76
2017-10-11T10:24:06.989Z,88
2017-10-11T10:25:15.683Z,88
2017-10-11T10:26:24.713Z,96
2017-10-11T10:27:34.074Z,100
2017-10-11T10:28:43.767Z,100
2017-10-11T10:29:52.793Z,104
2017-10-11T10:31:02.147Z,92
2017-10-11T10:32:11.177Z,72
2017-10-11T10:33:20.201Z,76
2017-10-11T10:34:29.228Z,80
2017-10-11T10:35:38.250Z,80
2017-10-11T10:36:47.604Z,76
2017-10-11T10:37:56.300Z,76
2017-10-11T10:39:05.330Z,88
2017-10-11T10:40:14.358Z,92
2017-10-11T10:41:23.710Z,88
2017-10-11T10:42:32.741Z,96
2017-10-11T10:43:41.760Z,104
2017-10-11T10:44:50.455Z,88
2017-10-11T10:45:59.152Z,88
2017-10-11T10:47:07.878Z,76
2017-10-11T10:48:16.577Z,72
2017-10-11T10:49:25.958Z,72
2017-10-11T10:50:34.986Z,84
2017-10-11T10:51:43.680Z,88
2017-10-11T10:52:52.702Z,80
2017-10-11T10:54:01.731Z,76
2017-10-11T10:55:10.759Z,76
2017-10-11T10:56:20.469Z,80
2017-10-11T10:57:29.165Z,76
2017-10-11T10:58:38.186Z,72
2017-10-11T10:59:47.545Z,68
2017-10-11T11:00:57.240Z,72
2017-10-11T11:02:06.264Z,76
2017-10-11T11:03:15.296Z,80
2017-10-11T11:04:24.643Z,84
2017-10-11T11:05:34.348Z,84
2017-10-11T11:06:43.373Z,92
2017-10-11T11:07:52.073Z,80
2017-10-11T11:09:01.108Z,80
2017-10-11T11:10:09.793Z,80
2017-10-11T11:11:18.816Z,68
2017-10-11T11:12:27.513Z,68
2017-10-11T11:13:36.204Z,60
2017-10-11T11:14:45.569Z,56
2017-10-11T11:15:54.602Z,56
2017-10-11T11:17:03.630Z,52
2017-10-11T11:18:12.323Z,48
2017-10-11T11:19:21.687Z,52
2017-10-11T11:20:30.714Z,44
2017-10-11T11:21:39.748Z,44
2017-10-11T11:22:48.780Z,44
2017-10-11T11:23:57.808Z,48
2017-10-11T11:25:06.505Z,40
2017-10-11T11:26:15.862Z,36
2017-10-11T11:27:24.888Z,32
2017-10-11T11:28:34.245Z,32
2017-10-11T11:29:42.940Z,44
2017-10-11T11:30:51.975Z,48
2017-10-11T11:32:01.666Z,44
2017-10-11T11:33:10.357Z,64
2017-10-11T11:34:19.385Z,68
2017-10-11T11:35:28.079Z,68
2017-10-11T11:36:37.440Z,64
2017-10-11T11:37:46.808Z,56
2017-10-11T11:38:56.504Z,56
2017-10-11T11:40:05.543Z,72
2017-10-11T11:41:14.578Z,80
2017-10-11T11:42:23.606Z,76
2017-10-11T11:43:32.965Z,64
2017-10-11T11:44:41.995Z,76
2017-10-11T11:45:51.354Z,80
2017-10-11T11:47:00.719Z,76
2017-10-11T11:48:09.416Z,68
2017-10-11T11:49:18.775Z,64
2017-10-11T11:50:28.136Z,60
2017-10-11T11:51:37.164Z,72
2017-10-11T11:52:46.528Z,84
2017-10-11T11:53:55.559Z,92
2017-10-11T11:55:04.916Z,112
2017-10-11T11:56:13.610Z,116
2017-10-11T11:57:22.963Z,104
2017-10-11T11:58:31.653Z,88
2017-10-11T11:59:40.348Z,104
2017-10-11T12:00:49.376Z,92
2017-10-11T12:01:58.740Z,96
2017-10-11T12:03:08.106Z,108
2017-10-11T12:04:16.796Z,100
2017-10-11T12:05:25.490Z,88
2017-10-11T12:06:35.186Z,76
2017-10-11T12:07:44.536Z,84
2017-10-11T12:08:53.564Z,80
2017-10-11T12:10:02.588Z,76
2017-10-11T12:11:11.942Z,84
2017-10-11T12:12:21.969Z,84
2017-10-11T12:13:31.326Z,88
2017-10-11T12:14:40.016Z,76
2017-10-11T12:15:49.051Z,72
2017-10-11T12:16:58.403Z,64
2017-10-11T12:18:07.765Z,64
2017-10-11T12:19:17.132Z,68
2017-10-11T12:20:26.150Z,68
2017-10-11T12:21:35.177Z,72
2017-10-11T12:22:44.544Z,64
2017-10-11T12:23:53.579Z,60
2017-10-11T12:25:02.278Z,56
2017-10-11T12:26:10.974Z,56
2017-10-11T12:27:19.672Z,52
2017-10-11T12:28:29.037Z,48
2017-10-11T12:29:38.398Z,48
2017-10-11T12:30:47.093Z,48
2017-10-11T12:31:55.787Z,52
2017-10-11T12:33:04.483Z,56
2017-10-11T12:34:13.843Z,60
2017-10-11T12:35:23.530Z,60
2017-10-11T12:36:32.219Z,60
2017-10-11T12:37:41.242Z,56
2017-10-11T12:38:50.608Z,56
2017-10-11T12:39:59.637Z,52
2017-10-11T12:41:08.996Z,52
2017-10-11T12:42:18.025Z,52
2017-10-11T12:43:27.050Z,48
2017-10-11T12:44:35.798Z,52
2017-10-11T12:45:45.155Z,52
2017-10-11T12:46:54.178Z,48
2017-10-11T12:48:03.536Z,44
2017-10-11T12:49:12.570Z,44
2017-10-11T12:50:21.597Z,44
2017-10-11T12:51:30.291Z,48
2017-10-11T12:52:38.989Z,48
2017-10-11T12:53:48.349Z,44
2017-10-11T12:54:57.044Z,44
2017-10-11T12:56:06.730Z,44
2017-10-11T12:57:15.427Z,48
2017-10-11T12:58:24.455Z,48
2017-10-11T12:59:33.817Z,52
2017-10-11T13:00:42.508Z,52
2017-10-11T13:01:51.548Z,52
2017-10-11T13:03:00.901Z,56
2017-10-11T13:04:10.259Z,68
2017-10-11T13:05:18.956Z,68
2017-10-11T13:06:28.647Z,72
2017-10-11T13:07:37.674Z,96
2017-10-11T13:08:47.036Z,96
2017-10-11T13:09:56.730Z,96
2017-10-11T13:11:05.757Z,84
2017-10-11T13:12:15.119Z,88
2017-10-11T13:13:24.148Z,92
2017-10-11T13:14:33.845Z,76
2017-10-11T13:15:43.202Z,72
2017-10-11T13:16:51.897Z,72
2017-10-11T13:18:00.931Z,68
2017-10-11T13:19:09.959Z,64
2017-10-11T13:20:19.317Z,64
2017-10-11T13:21:28.012Z,60
2017-10-11T13:22:36.706Z,60
2017-10-11T13:23:46.068Z,60
2017-10-11T13:24:55.096Z,52
2017-10-11T13:26:03.796Z,52
2017-10-11T13:27:12.488Z,48
2017-10-11T13:28:21.179Z,56
2017-10-11T13:29:30.204Z,52
2017-10-11T13:30:39.224Z,52
2017-10-11T13:31:48.583Z,48
2017-10-11T13:32:57.272Z,56
2017-10-11T13:34:06.301Z,56
2017-10-11T13:35:15.328Z,48
2017-10-11T13:36:24.355Z,56
2017-10-11T13:37:33.390Z,68
2017-10-11T13:38:42.412Z,60
2017-10-11T13:39:52.111Z,64
2017-10-11T13:41:00.808Z,56
2017-10-11T13:42:10.164Z,56
2017-10-11T13:43:19.518Z,64
2017-10-11T13:44:28.550Z,56
2017-10-11T13:45:38.235Z,52
2017-10-11T13:46:46.938Z,56
2017-10-11T13:47:55.964Z,68
2017-10-11T13:49:05.328Z,72
2017-10-11T13:59:53.343Z,48
2017-10-11T14:01:02.051Z,48
2017-10-11T14:02:10.738Z,48
2017-10-11T14:03:19.772Z,52
2017-10-11T14:04:28.468Z,52
2017-10-11T14:05:37.836Z,52
2017-10-11T14:06:46.867Z,52
2017-10-11T14:07:55.903Z,52
2017-10-11T14:09:05.269Z,56
2017-10-11T14:10:14.300Z,56
2017-10-11T14:11:23.993Z,56
2017-10-11T14:12:33.026Z,56
2017-10-11T14:13:42.388Z,60
2017-10-11T14:14:51.083Z,60
2017-10-11T14:16:00.116Z,56
2017-10-11T14:17:09.810Z,60
2017-10-11T14:18:18.847Z,60
2017-10-11T14:19:27.881Z,64
2017-10-11T14:20:37.256Z,68
2017-10-11T14:21:46.286Z,68
2017-10-11T14:22:55.981Z,64
2017-10-11T14:24:05.676Z,60
2017-10-11T14:25:14.705Z,68
2017-10-11T14:26:23.731Z,68
2017-10-11T14:27:32.789Z,56
2017-10-11T14:28:41.489Z,56
2017-10-11T14:29:50.519Z,80
2017-10-11T14:31:00.209Z,72
2017-10-11T14:32:08.908Z,76
2017-10-11T14:33:17.960Z,84
2017-10-11T14:34:26.658Z,88
2017-10-11T14:35:35.694Z,108
2017-10-11T14:36:44.394Z,96
2017-10-11T14:37:53.091Z,100
2017-10-11T14:39:02.119Z,108
2017-10-11T14:40:11.827Z,104
2017-10-11T14:41:21.205Z,96
2017-10-11T14:42:30.234Z,100
2017-10-11T14:43:39.262Z,96
2017-10-11T14:44:48.627Z,100
2017-10-11T14:45:57.653Z,104
2017-10-11T14:47:06.693Z,108
2017-10-11T14:48:15.730Z,96
2017-10-11T14:49:25.438Z,80
2017-10-11T14:50:35.492Z,80
2017-10-11T14:51:44.526Z,68
2017-10-11T14:52:53.895Z,60
2017-10-11T14:54:03.587Z,48
2017-10-11T14:55:12.619Z,48
2017-10-11T14:56:21.318Z,52
2017-10-11T14:57:30.019Z,48
2017-10-11T14:58:39.380Z,48
2017-10-11T14:59:49.407Z,52
2017-10-11T15:00:58.104Z,48
2017-10-11T15:02:07.798Z,60
2017-10-11T15:03:16.493Z,72
2017-10-11T15:04:25.195Z,80
2017-10-11T15:05:34.553Z,80
2017-10-11T15:06:44.249Z,88
2017-10-11T15:07:53.278Z,84
2017-10-11T15:09:02.968Z,84
2017-10-11T15:10:11.995Z,84
2017-10-11T15:11:21.364Z,80
2017-10-11T15:12:31.061Z,84
2017-10-11T15:13:39.762Z,76
2017-10-11T15:14:48.786Z,84
2017-10-11T15:15:58.149Z,84
2017-10-11T15:17:07.174Z,76
2017-10-11T15:18:16.535Z,72
2017-10-11T15:19:25.560Z,80
2017-10-11T15:20:34.589Z,72
2017-10-11T15:21:43.291Z,68
2017-10-11T15:22:51.987Z,64
2017-10-11T15:24:00.683Z,68
2017-10-11T15:25:09.720Z,64
2017-10-11T15:26:19.082Z,56
2017-10-11T15:27:28.776Z,56
2017-10-11T15:28:37.806Z,56
2017-10-11T15:29:47.165Z,52
2017-10-11T15:30:56.199Z,52
2017-10-11T15:32:04.890Z,48
2017-10-11T15:33:14.583Z,44
2017-10-11T15:34:23.283Z,44
2017-10-11T15:35:32.650Z,40
2017-10-11T15:36:42.677Z,44
2017-10-11T15:37:51.369Z,44
2017-10-11T15:39:00.397Z,44
2017-10-11T15:40:09.094Z,44
2017-10-11T15:41:18.804Z,40
2017-10-11T15:42:27.499Z,40
2017-10-11T15:43:36.537Z,44
2017-10-11T15:44:46.230Z,40
2017-10-11T15:45:55.601Z,40
2017-10-11T15:47:04.291Z,36
2017-10-11T15:48:13.981Z,32
2017-10-11T15:49:23.014Z,36
2017-10-11T15:50:32.380Z,32
2017-10-11T15:51:42.106Z,32
2017-10-11T15:52:51.469Z,28
2017-10-11T15:54:00.844Z,28
2017-10-11T15:55:09.868Z,28
2017-10-11T15:56:18.922Z,24
2017-10-11T15:57:27.945Z,24
2017-10-11T15:58:36.641Z,20
2017-10-11T15:59:45.341Z,20
2017-10-11T16:00:54.750Z,20
2017-10-11T16:02:04.110Z,16
2017-10-11T16:03:13.485Z,20
2017-10-11T16:04:22.518Z,16
2017-10-11T16:05:31.880Z,16
2017-10-11T16:06:41.244Z,16
2017-10-11T16:07:50.272Z,16
2017-10-11T16:08:59.309Z,16
2017-10-11T16:10:08.676Z,12
2017-10-11T16:11:18.033Z,12
2017-10-11T16:12:26.880Z,16
2017-10-11T16:13:36.586Z,16
2017-10-11T16:14:46.284Z,16
2017-10-11T16:15:54.982Z,16
2017-10-11T16:17:04.014Z,16
2017-10-11T16:18:12.717Z,12
2017-10-11T16:19:22.410Z,12
2017-10-11T16:20:31.440Z,16
2017-10-11T16:21:40.471Z,12
2017-10-11T16:22:49.166Z,12
2017-10-11T16:23:58.531Z,12
2017-10-11T16:25:07.227Z,8
2017-10-11T16:26:16.265Z,12
2017-10-11T16:27:25.624Z,8
2017-10-11T16:28:34.325Z,8
2017-10-11T16:29:43.505Z,8
2017-10-11T16:30:52.535Z,4
2017-10-11T16:32:02.236Z,4
2017-10-11T16:33:10.935Z,8
2017-10-11T16:34:20.293Z,8
2017-10-11T16:35:29.655Z,8
2017-10-11T16:36:38.353Z,8
2017-10-11T16:37:47.714Z,8
2017-10-11T16:38:56.412Z,8
2017-10-11T16:40:05.444Z,4
2017-10-11T16:41:14.144Z,4
2017-10-11T16:42:23.176Z,4
2017-10-11T16:43:32.210Z,4
2017-10-11T16:44:41.931Z,4
2017-10-11T16:45:51.295Z,4
2017-10-11T16:46:59.993Z,4
2017-10-11T16:48:08.690Z,4
2017-10-11T16:49:17.388Z,0